Kalar Kahar Weather



Kalar Kahar's Current Weather

Temprature 28.95o clear sky

clear sky

Rain: 0 %

Min Temprature28.95o
Max Temprature28.95o
Humidity55
Wind Speed2.95 m/h
Sun Rise05:37:43
Sun Set18:46:40
Current Time: 23-Aug-2019 05:50:13
Lat/Lon: 32.78, 72.7




Kalar Kahar's Geo Location



Kalar Kahar's Weather Forecast

Time Overall Temp Min Temp Max Temp Humidity Wind Speed Rain
23-Aug-2019 (Fri)
08:00:00 clear sky 31.100 31.097 31.100 49 1.94 m/h 0 %
11:00:00 clear sky 35.850 35.850 35.850 32 0.85 m/h 0 %
14:00:00 clear sky 38.130 38.130 38.131 27 3.54 m/h 0 %
17:00:00 clear sky 37.810 37.810 37.811 26 3.47 m/h 0 %
20:00:00 clear sky 34.850 34.850 34.850 33 1.47 m/h 0 %
23:00:00 clear sky 32.742 32.742 32.742 39 2.93 m/h 0 %
24-Aug-2019 (Sat)
02:00:00 clear sky 31.431 31.431 31.431 42 3.49 m/h 0 %
05:00:00 clear sky 30.055 30.055 30.055 46 2.93 m/h 0 %
08:00:00 clear sky 32.017 32.017 32.017 42 2.57 m/h 0 %
11:00:00 clear sky 37.069 37.069 37.069 29 1.26 m/h 0 %
14:00:00 clear sky 39.369 39.369 39.369 22 1.96 m/h 0 %
17:00:00 clear sky 39.423 39.423 39.423 22 3.55 m/h 0 %
20:00:00 clear sky 35.550 35.550 35.550 30 2.67 m/h 0 %
23:00:00 clear sky 33.269 33.269 33.269 37 3.02 m/h 0 %
25-Aug-2019 (Sun)
02:00:00 clear sky 31.731 31.731 31.731 42 4.29 m/h 0 %
05:00:00 clear sky 30.157 30.157 30.157 47 3.17 m/h 0 %
08:00:00 clear sky 31.714 31.714 31.714 48 4.7 m/h 0 %
11:00:00 clear sky 37.416 37.416 37.416 31 3.97 m/h 0 %
14:00:00 clear sky 39.750 39.750 39.750 24 3.11 m/h 0 %
17:00:00 clear sky 39.950 39.950 39.950 21 3.29 m/h 0 %
20:00:00 few clouds 35.481 35.481 35.481 33 1.66 m/h 0 %
23:00:00 clear sky 32.511 32.511 32.511 45 4.37 m/h 0 %
26-Aug-2019 (Mon)
02:00:00 clear sky 31.165 31.165 31.165 54 7.15 m/h 0 %
05:00:00 clear sky 29.250 29.250 29.250 63 5.31 m/h 0 %
08:00:00 clear sky 30.567 30.567 30.567 60 5.27 m/h 0 %
11:00:00 clear sky 35.872 35.872 35.872 40 5.31 m/h 0 %
14:00:00 scattered clouds 37.984 37.984 37.984 33 4.29 m/h 0 %
17:00:00 scattered clouds 38.320 38.320 38.320 29 3.41 m/h 0 %
20:00:00 clear sky 34.572 34.572 34.572 39 4.28 m/h 0 %
23:00:00 clear sky 32.714 32.714 32.714 45 3.6 m/h 0 %
27-Aug-2019 (Tue)
02:00:00 clear sky 31.316 31.316 31.316 49 2.94 m/h 0 %
05:00:00 scattered clouds 30.350 30.350 30.350 55 2.07 m/h 0 %
08:00:00 overcast clouds 32.535 32.535 32.535 48 1.88 m/h 0 %
11:00:00 overcast clouds 36.636 36.636 36.636 36 0.97 m/h 0 %
14:00:00 overcast clouds 37.736 37.736 37.736 31 1.54 m/h 0 %
17:00:00 overcast clouds 36.965 36.965 36.965 35 4.3 m/h 0 %
20:00:00 overcast clouds 34.350 34.350 34.350 41 2.92 m/h 0 %
23:00:00 overcast clouds 33.350 33.350 33.350 41 3.47 m/h 0 %
28-Aug-2019 (Wed)
02:00:00 few clouds 31.357 31.357 31.357 50 3.37 m/h 0 %
05:00:00 light rain 29.772 29.772 29.772 57 1.56 m/h 56 %

Famous Cities (61)